sensor_id;sensor_type;location;lat;lon;timestamp;P1;durP1;ratioP1;P2;durP2;ratioP2
13687;SDS011;6916;51.504;7.416;2023-05-20T00:03:05;4.70;;;1.80;;
13687;SDS011;6916;51.504;7.416;2023-05-20T00:13:08;5.20;;;1.60;;
13687;SDS011;6916;51.504;7.416;2023-05-20T00:23:10;3.10;;;2.15;;
13687;SDS011;6916;51.504;7.416;2023-05-20T00:33:12;4.60;;;2.00;;
13687;SDS011;6916;51.504;7.416;2023-05-20T00:43:14;3.83;;;2.50;;
13687;SDS011;6916;51.504;7.416;2023-05-20T00:53:17;5.68;;;2.08;;
13687;SDS011;6916;51.504;7.416;2023-05-20T01:03:19;5.80;;;2.50;;
13687;SDS011;6916;51.504;7.416;2023-05-20T01:13:22;9.40;;;4.03;;
13687;SDS011;6916;51.504;7.416;2023-05-20T01:23:30;5.07;;;4.20;;
13687;SDS011;6916;51.504;7.416;2023-05-20T01:33:35;2.83;;;2.13;;
13687;SDS011;6916;51.504;7.416;2023-05-20T01:43:38;3.90;;;1.95;;
13687;SDS011;6916;51.504;7.416;2023-05-20T01:53:40;4.10;;;2.03;;
13687;SDS011;6916;51.504;7.416;2023-05-20T02:03:42;5.00;;;2.50;;
13687;SDS011;6916;51.504;7.416;2023-05-20T02:13:45;2.40;;;1.73;;
13687;SDS011;6916;51.504;7.416;2023-05-20T02:23:48;2.75;;;1.42;;
13687;SDS011;6916;51.504;7.416;2023-05-20T02:33:50;2.42;;;1.73;;
13687;SDS011;6916;51.504;7.416;2023-05-20T02:43:53;1.93;;;1.30;;
13687;SDS011;6916;51.504;7.416;2023-05-20T02:53:55;1.77;;;1.43;;
13687;SDS011;6916;51.504;7.416;2023-05-20T03:03:57;4.20;;;1.67;;
13687;SDS011;6916;51.504;7.416;2023-05-20T03:14:00;4.27;;;1.40;;
13687;SDS011;6916;51.504;7.416;2023-05-20T03:24:02;6.10;;;1.90;;
13687;SDS011;6916;51.504;7.416;2023-05-20T03:34:04;3.37;;;2.10;;
13687;SDS011;6916;51.504;7.416;2023-05-20T03:44:07;2.90;;;2.10;;
13687;SDS011;6916;51.504;7.416;2023-05-20T03:54:09;4.97;;;2.45;;
13687;SDS011;6916;51.504;7.416;2023-05-20T04:04:11;4.78;;;2.50;;
13687;SDS011;6916;51.504;7.416;2023-05-20T04:14:15;4.45;;;3.10;;
13687;SDS011;6916;51.504;7.416;2023-05-20T04:24:18;4.50;;;2.78;;
13687;SDS011;6916;51.504;7.416;2023-05-20T04:34:20;4.97;;;2.72;;
13687;SDS011;6916;51.504;7.416;2023-05-20T04:44:27;3.65;;;2.03;;
13687;SDS011;6916;51.504;7.416;2023-05-20T04:54:31;3.90;;;2.73;;
13687;SDS011;6916;51.504;7.416;2023-05-20T05:04:33;3.63;;;1.65;;
13687;SDS011;6916;51.504;7.416;2023-05-20T05:14:36;2.70;;;1.70;;
13687;SDS011;6916;51.504;7.416;2023-05-20T05:24:38;2.58;;;2.13;;
13687;SDS011;6916;51.504;7.416;2023-05-20T05:34:40;3.78;;;2.42;;
13687;SDS011;6916;51.504;7.416;2023-05-20T05:44:43;7.37;;;2.20;;
13687;SDS011;6916;51.504;7.416;2023-05-20T05:54:45;4.82;;;1.70;;
13687;SDS011;6916;51.504;7.416;2023-05-20T06:04:47;3.60;;;2.60;;
13687;SDS011;6916;51.504;7.416;2023-05-20T06:14:51;2.73;;;2.33;;
13687;SDS011;6916;51.504;7.416;2023-05-20T06:24:54;4.27;;;2.50;;
13687;SDS011;6916;51.504;7.416;2023-05-20T06:35:01;3.60;;;2.20;;
13687;SDS011;6916;51.504;7.416;2023-05-20T06:45:04;3.50;;;1.92;;
13687;SDS011;6916;51.504;7.416;2023-05-20T06:55:30;6.28;;;2.80;;
13687;SDS011;6916;51.504;7.416;2023-05-20T07:05:32;3.60;;;2.85;;
13687;SDS011;6916;51.504;7.416;2023-05-20T07:15:35;3.75;;;3.22;;
13687;SDS011;6916;51.504;7.416;2023-05-20T07:25:39;3.35;;;2.97;;
13687;SDS011;6916;51.504;7.416;2023-05-20T07:35:42;3.80;;;3.13;;
13687;SDS011;6916;51.504;7.416;2023-05-20T07:45:46;4.85;;;3.60;;
13687;SDS011;6916;51.504;7.416;2023-05-20T07:55:48;6.00;;;3.65;;
13687;SDS011;6916;51.504;7.416;2023-05-20T08:05:52;4.73;;;3.73;;
13687;SDS011;6916;51.504;7.416;2023-05-20T08:15:54;4.65;;;3.95;;
13687;SDS011;6916;51.504;7.416;2023-05-20T08:25:59;5.60;;;3.97;;
13687;SDS011;6916;51.504;7.416;2023-05-20T08:36:05;7.80;;;4.45;;
13687;SDS011;6916;51.504;7.416;2023-05-20T08:46:09;6.05;;;4.07;;
13687;SDS011;6916;51.504;7.416;2023-05-20T08:56:13;5.20;;;4.70;;
13687;SDS011;6916;51.504;7.416;2023-05-20T09:06:16;7.22;;;4.45;;
13687;SDS011;6916;51.504;7.416;2023-05-20T09:16:22;5.75;;;4.60;;
13687;SDS011;6916;51.504;7.416;2023-05-20T09:26:27;7.68;;;4.20;;
13687;SDS011;6916;51.504;7.416;2023-05-20T09:36:34;6.63;;;5.47;;
13687;SDS011;6916;51.504;7.416;2023-05-20T09:46:39;7.00;;;4.68;;
13687;SDS011;6916;51.504;7.416;2023-05-20T09:56:42;5.25;;;4.75;;
13687;SDS011;6916;51.504;7.416;2023-05-20T10:07:08;8.55;;;4.80;;
13687;SDS011;6916;51.504;7.416;2023-05-20T10:27:45;7.10;;;4.68;;
13687;SDS011;6916;51.504;7.416;2023-05-20T10:37:48;5.25;;;4.28;;
13687;SDS011;6916;51.504;7.416;2023-05-20T10:47:54;7.75;;;4.50;;
13687;SDS011;6916;51.504;7.416;2023-05-20T10:58:00;5.07;;;4.57;;
13687;SDS011;6916;51.504;7.416;2023-05-20T11:08:03;6.45;;;4.60;;
13687;SDS011;6916;51.504;7.416;2023-05-20T11:18:27;8.10;;;4.97;;
13687;SDS011;6916;51.504;7.416;2023-05-20T11:28:31;4.80;;;4.07;;
13687;SDS011;6916;51.504;7.416;2023-05-20T11:38:34;4.28;;;3.75;;
13687;SDS011;6916;51.504;7.416;2023-05-20T11:48:36;3.70;;;3.05;;
13687;SDS011;6916;51.504;7.416;2023-05-20T11:58:39;4.75;;;3.03;;
13687;SDS011;6916;51.504;7.416;2023-05-20T12:08:49;4.85;;;3.25;;
13687;SDS011;6916;51.504;7.416;2023-05-20T12:18:51;4.20;;;2.80;;
13687;SDS011;6916;51.504;7.416;2023-05-20T12:28:54;5.28;;;2.90;;
13687;SDS011;6916;51.504;7.416;2023-05-20T12:38:57;6.82;;;3.35;;
13687;SDS011;6916;51.504;7.416;2023-05-20T12:48:59;4.65;;;3.45;;
13687;SDS011;6916;51.504;7.416;2023-05-20T12:59:02;13.95;;;3.17;;
13687;SDS011;6916;51.504;7.416;2023-05-20T13:09:04;4.63;;;2.97;;
13687;SDS011;6916;51.504;7.416;2023-05-20T13:19:06;5.10;;;3.33;;
13687;SDS011;6916;51.504;7.416;2023-05-20T13:29:08;3.03;;;2.67;;
13687;SDS011;6916;51.504;7.416;2023-05-20T13:39:11;3.58;;;2.50;;
13687;SDS011;6916;51.504;7.416;2023-05-20T13:49:13;4.53;;;2.97;;
13687;SDS011;6916;51.504;7.416;2023-05-20T13:59:15;3.00;;;2.45;;
13687;SDS011;6916;51.504;7.416;2023-05-20T14:09:17;2.53;;;2.33;;
13687;SDS011;6916;51.504;7.416;2023-05-20T14:19:20;3.17;;;2.88;;
13687;SDS011;6916;51.504;7.416;2023-05-20T14:29:22;2.95;;;2.63;;
13687;SDS011;6916;51.504;7.416;2023-05-20T14:39:25;9.38;;;3.95;;
13687;SDS011;6916;51.504;7.416;2023-05-20T14:49:27;3.53;;;3.05;;
13687;SDS011;6916;51.504;7.416;2023-05-20T14:59:29;13.43;;;4.53;;
13687;SDS011;6916;51.504;7.416;2023-05-20T15:09:32;13.65;;;4.53;;
13687;SDS011;6916;51.504;7.416;2023-05-20T15:19:35;11.60;;;4.28;;
13687;SDS011;6916;51.504;7.416;2023-05-20T15:29:41;4.00;;;3.42;;
13687;SDS011;6916;51.504;7.416;2023-05-20T15:39:43;5.95;;;4.93;;
13687;SDS011;6916;51.504;7.416;2023-05-20T15:49:45;4.00;;;3.65;;
13687;SDS011;6916;51.504;7.416;2023-05-20T15:59:48;4.25;;;3.95;;
13687;SDS011;6916;51.504;7.416;2023-05-20T16:09:50;3.70;;;3.40;;
13687;SDS011;6916;51.504;7.416;2023-05-20T16:19:52;8.95;;;5.97;;
13687;SDS011;6916;51.504;7.416;2023-05-20T16:29:55;5.03;;;3.92;;
13687;SDS011;6916;51.504;7.416;2023-05-20T16:39:57;3.45;;;3.15;;
13687;SDS011;6916;51.504;7.416;2023-05-20T16:49:59;5.88;;;3.33;;
13687;SDS011;6916;51.504;7.416;2023-05-20T17:00:02;25.27;;;7.03;;
13687;SDS011;6916;51.504;7.416;2023-05-20T17:10:12;33.05;;;7.90;;
13687;SDS011;6916;51.504;7.416;2023-05-20T17:20:14;6.63;;;4.18;;
13687;SDS011;6916;51.504;7.416;2023-05-20T17:30:16;6.22;;;3.90;;
13687;SDS011;6916;51.504;7.416;2023-05-20T17:40:18;6.25;;;4.25;;
13687;SDS011;6916;51.504;7.416;2023-05-20T17:50:21;6.30;;;5.45;;
13687;SDS011;6916;51.504;7.416;2023-05-20T18:00:24;6.43;;;5.30;;
13687;SDS011;6916;51.504;7.416;2023-05-20T18:10:27;5.93;;;4.90;;
13687;SDS011;6916;51.504;7.416;2023-05-20T18:20:29;7.78;;;4.72;;
13687;SDS011;6916;51.504;7.416;2023-05-20T18:30:32;5.50;;;5.00;;
13687;SDS011;6916;51.504;7.416;2023-05-20T18:40:34;8.70;;;6.30;;
13687;SDS011;6916;51.504;7.416;2023-05-20T18:50:39;5.95;;;5.35;;
13687;SDS011;6916;51.504;7.416;2023-05-20T19:00:41;7.45;;;5.65;;
13687;SDS011;6916;51.504;7.416;2023-05-20T19:10:43;8.40;;;6.28;;
13687;SDS011;6916;51.504;7.416;2023-05-20T19:20:45;8.05;;;6.65;;
13687;SDS011;6916;51.504;7.416;2023-05-20T19:30:48;11.68;;;8.68;;
13687;SDS011;6916;51.504;7.416;2023-05-20T19:40:50;13.15;;;9.25;;
13687;SDS011;6916;51.504;7.416;2023-05-20T19:50:53;7.22;;;6.53;;
13687;SDS011;6916;51.504;7.416;2023-05-20T20:00:59;11.07;;;7.40;;
13687;SDS011;6916;51.504;7.416;2023-05-20T20:11:01;9.48;;;7.43;;
13687;SDS011;6916;51.504;7.416;2023-05-20T20:21:04;10.85;;;8.65;;
13687;SDS011;6916;51.504;7.416;2023-05-20T20:31:06;15.20;;;9.63;;
13687;SDS011;6916;51.504;7.416;2023-05-20T20:41:09;21.98;;;14.68;;
13687;SDS011;6916;51.504;7.416;2023-05-20T20:51:14;20.73;;;13.35;;
13687;SDS011;6916;51.504;7.416;2023-05-20T21:01:17;29.80;;;20.98;;
13687;SDS011;6916;51.504;7.416;2023-05-20T21:11:19;13.90;;;9.98;;
13687;SDS011;6916;51.504;7.416;2023-05-20T21:21:23;15.60;;;10.30;;
13687;SDS011;6916;51.504;7.416;2023-05-20T21:31:25;13.35;;;9.18;;
13687;SDS011;6916;51.504;7.416;2023-05-20T21:41:27;13.95;;;10.02;;
13687;SDS011;6916;51.504;7.416;2023-05-20T21:51:29;13.98;;;9.27;;
13687;SDS011;6916;51.504;7.416;2023-05-20T22:01:32;12.55;;;8.82;;
13687;SDS011;6916;51.504;7.416;2023-05-20T22:11:34;13.45;;;9.45;;
13687;SDS011;6916;51.504;7.416;2023-05-20T22:21:38;10.35;;;7.75;;
13687;SDS011;6916;51.504;7.416;2023-05-20T22:31:51;11.18;;;8.63;;
13687;SDS011;6916;51.504;7.416;2023-05-20T22:41:54;11.50;;;8.18;;
13687;SDS011;6916;51.504;7.416;2023-05-20T22:51:56;10.07;;;7.70;;
13687;SDS011;6916;51.504;7.416;2023-05-20T23:02:00;11.73;;;7.72;;
13687;SDS011;6916;51.504;7.416;2023-05-20T23:12:03;9.00;;;7.22;;
13687;SDS011;6916;51.504;7.416;2023-05-20T23:22:05;11.55;;;8.70;;
13687;SDS011;6916;51.504;7.416;2023-05-20T23:32:07;10.88;;;8.38;;
13687;SDS011;6916;51.504;7.416;2023-05-20T23:42:10;11.93;;;8.57;;
13687;SDS011;6916;51.504;7.416;2023-05-20T23:52:12;11.43;;;8.18;;
